CLT weather

Charlotte Douglas International Airport
Charlotte, North Carolina, United States

Public forecast

Using degrees Fahrenheit for public forecast. Weather courtesy of forecast.io.

METAR (pilot weather report)

Retrieved 2018/04/24 20:43 UTC (0 seconds ago):

KCLT 242043Z 17008KT 3/4SM R18C/1600VP6000FT +TSRA BR BKN029CB BKN036 OVC050 19/17 A2979 RMK AO2 RAB16 TSB22 OCNL LTGICCC OHD-SE TS OHD-SE MOV NE P0017 T01940172

TAF (pilot weather forecast)

Retrieved 2018/04/24 18:39 UTC (2 hours ago):

TAF KCLT 241736Z 2418/2524 10008KT P6SM VCSH BKN007 OVC014 TEMPO 2419/2421 VRB10G20KT 4SM -TSRA SCT007 BKN014CB BKN030 FM242100 06005KT P6SM VCSH BKN014 BKN030 TEMPO 2421/2423 VRB10G20KT 4SM -TSRA SCT014 BKN030CB FM250300 05003KT 3SM BR OVC006 FM251400 30004KT P6SM BKN017 FM251700 32005KT P6SM BKN035